WetterOnline ( https://www.wetteronline.de )

Wetter aktuell Bierun

Aktuelles Wetter: Kattowitz - Pyrzowice (284m)

6-stündlich | Neueste Meldungen
Ortszeit Temperatur Wetter
Mi, 22.01. 13:00 -0.5° C gefr. Sprühregen
Mi, 22.01. 7:00 -2.8° C fast wolkenlos
Mi, 22.01. 1:00 -1.6° C wolkenlos
Di, 21.01. 19:00 0.0° C wolkenlos
Di, 21.01. 13:00 2.9° C fast wolkenlos
Di, 21.01. 7:00 -1.7° C wolkenlos
Di, 21.01. 1:00 1.0° C bewölkt
Mo, 20.01. 19:00 1.9° C bedeckt
Ortszeit Temperatur Wetter
Mi, 22.01. 17:30 1° C bedeckt
Mi, 22.01. 17:00 -0.1° C leichter Schneefall
Mi, 22.01. 16:30 0° C Sprühregen
Mi, 22.01. 16:00 -0.1° C leichter Schneefall
Mi, 22.01. 15:30 0° C bedeckt
Mi, 22.01. 15:00 -0.0° C leichter Schneefall
Mi, 22.01. 14:30 0° C leichter Schneefall
Mi, 22.01. 14:00 -0.3° C gefr. Sprühregen
Ortszeit Relative Feuchte Sichtweite
Mi, 22.01. 13:00 93% 2.0 km
Mi, 22.01. 7:00 91% 10 km
Mi, 22.01. 1:00 89% 10 km
Di, 21.01. 19:00 79% 10 km
Di, 21.01. 13:00 68% 10 km
Di, 21.01. 7:00 90% 10 km
Di, 21.01. 1:00 77% 15 km
Mo, 20.01. 19:00 78% 10 km
Ortszeit Relative Feuchte Sichtweite
Mi, 22.01. 17:30 93% 6 km
Mi, 22.01. 17:00 96% 2.5 km
Mi, 22.01. 16:30 100% 2.8 km
Mi, 22.01. 16:00 95% 2.5 km
Mi, 22.01. 15:30 100% 5.0 km
Mi, 22.01. 15:00 95% 2.0 km
Mi, 22.01. 14:30 93% 4.2 km
Mi, 22.01. 14:00 95% 2.0 km
Ortszeit Niederschlagsmenge Niederschlagsart
Mi, 22.01. 13:00 0.1 l/m2 in 6 Std. -
Mi, 22.01. 7:00 0.0 l/m2 in 12 Std. -
Mi, 22.01. 1:00 0.0 l/m2 in 6 Std. -
Di, 21.01. 19:00 0.0 l/m2 in 12 Std. -
Di, 21.01. 13:00 0.0 l/m2 in 6 Std. -
Di, 21.01. 7:00 0.0 l/m2 in 12 Std. -
Di, 21.01. 1:00 0.0 l/m2 in 6 Std. -
Mo, 20.01. 19:00 0.0 l/m2 in 12 Std. -
Ortszeit Niederschlagsmenge Niederschlagsart
Mi, 22.01. 17:30 keine Meldung -
Mi, 22.01. 17:00 keine Meldung -
Mi, 22.01. 16:30 keine Meldung -
Mi, 22.01. 16:00 keine Meldung -
Mi, 22.01. 15:30 keine Meldung -
Mi, 22.01. 15:00 keine Meldung -
Mi, 22.01. 14:30 keine Meldung -
Mi, 22.01. 14:00 keine Meldung -
Ortszeit Stärke Spitze Richtung
km/h Bft. km/h Grad Sektor
Mi, 22.01. 13:00 14 3 - 240° SW
Mi, 22.01. 7:00 18 3 - 220° SW
Mi, 22.01. 1:00 14 3 - 220° SW
Di, 21.01. 19:00 14 3 - 220° SW
Di, 21.01. 13:00 14 3 - 240° SW
Di, 21.01. 7:00 14 3 - 210° SW
Di, 21.01. 1:00 7 2 - 240° SW
Mo, 20.01. 19:00 11 2 - 250° W
Ortszeit Stärke Spitze Richtung
km/h Bft. km/h Grad Sektor
Mi, 22.01. 17:30 20 4 - 280° W
Mi, 22.01. 17:00 14 3 - 240° SW
Mi, 22.01. 16:30 22 4 - 270° W
Mi, 22.01. 16:00 18 3 - 240° SW
Mi, 22.01. 15:30 22 4 - 270° W
Mi, 22.01. 15:00 18 3 - 230° SW
Mi, 22.01. 14:30 28 4 - 260° W
Mi, 22.01. 14:00 18 3 - 240° SW
Ortszeit Untergrenze Bedeckung Gattung
total tief tief mittel hoch
Mi, 22.01. 13:00 120 m 8/8 8/8 St - -
Mi, 22.01. 7:00 - 1/8 0/8 - - Ci
Mi, 22.01. 1:00 - 0/8 0/8 - - -
Di, 21.01. 19:00 - 0/8 0/8 - - -
Di, 21.01. 13:00 - 1/8 0/8 - - Ci
Di, 21.01. 7:00 - 0/8 0/8 - - -
Di, 21.01. 1:00 - 7/8 7/8 Sc - -
Mo, 20.01. 19:00 480 m 8/8 8/8 Sc - -
Ortszeit Bedeckungsgrad in Achtel und Wolkenuntergrenze
Mi, 22.01. 17:30 8(90m)
Mi, 22.01. 17:00 6(90m) 8(360m)
Mi, 22.01. 16:30 8(90m)
Mi, 22.01. 16:00 6(90m) 8(360m)
Mi, 22.01. 15:30 8(90m)
Mi, 22.01. 15:00 6(120m) 8(360m)
Mi, 22.01. 14:30 5-7(90m) 8(150m)
Mi, 22.01. 14:00 8(120m)
Ortszeit Luftdruck NN (hPa) Tendenz (hPa in 3 Std.)
Mi, 22.01. 13:00 1030 - 0,6
Mi, 22.01. 7:00 1031 - 2,0
Mi, 22.01. 1:00 1035 - 1,6
Di, 21.01. 19:00 1038 - 1,6
Di, 21.01. 13:00 1041 - 1,8
Di, 21.01. 7:00 1044 - 1,3
Di, 21.01. 1:00 1047 - 0,6
Mo, 20.01. 19:00 1047 + 0,3
Ortszeit Luftdruck NN (hPa) Tendenz (hPa in 3 Std.)
Mi, 22.01. 17:30 1026 keine Meldung
Mi, 22.01. 17:00 1030 + 0,3
Mi, 22.01. 16:30 1026 keine Meldung
Mi, 22.01. 16:00 1029 - 1,0
Mi, 22.01. 15:30 1026 keine Meldung
Mi, 22.01. 15:00 1029 - 1,0
Mi, 22.01. 14:30 1026 keine Meldung
Mi, 22.01. 14:00 1029 - 1,2
Ortszeit Schneehöhe (cm)
Mi, 22.01. 13:00 -
Mi, 22.01. 7:00 -
Mi, 22.01. 1:00 -
Di, 21.01. 19:00 -
Di, 21.01. 13:00 -
Di, 21.01. 7:00 -
Di, 21.01. 1:00 -
Mo, 20.01. 19:00 -
Ortszeit Schneehöhe (cm)
Mi, 22.01. 17:30 -
Mi, 22.01. 17:00 -
Mi, 22.01. 16:30 -
Mi, 22.01. 16:00 -
Mi, 22.01. 15:30 -
Mi, 22.01. 15:00 -
Mi, 22.01. 14:30 -
Mi, 22.01. 14:00 -
Link zu dieser Seite / Seite empfehlen

Das Wetter in ...